Latest Coastal Weather Observations for Cato Island

IDQ60701

Issued at 1:51 am EST Wednesday 25 May 2016 (issued every 10 minutes, with the page automatically refreshed every 10 minutes)

About coastal observations | Map of coastal stations | Coastal observations for QLD | Marine services | Other Formats
Station Details ID: 200601 Name: CATO ISLAND Lat: -23.25 Lon: 155.54 Height: 6.3 m
Data from the previous 72 hours. | See also: Recent months for locations in Queensland
Date/Time
EST
Temp

°C
Wind Pressure Rain
since 9am
mm
Weather Cloud Vis
km
Sea
Height
m
Swell
Dir
 
Speed
knots
Gust
knots
hPa Trend Height
m
Period
s
Dir
25/01:30am 23.4 CALM 0 0 1015.6 - - - - - - - - -
25/01:00am 23.4 W 1 4 1016.0 - - - - - - - - -
25/12:30am 23.5 W 4 4 1016.3 - - - - - - - - -
25/12:00am 23.5 W 3 5 1016.4 - - - - - - - - -
 
Date/Time
EST
Temp

°C
Wind Pressure Rain
since 9am
mm
Weather Cloud Vis
km
Sea
Height
m
Swell
Dir
 
Speed
knots
Gust
knots
hPa Trend Height
m
Period
s
Dir
24/11:30pm 22.7 WSW 4 5 1016.4 - - - - - - - - -
24/11:00pm 23.1 CALM 0 0 1016.6 - - - - - - - - -
24/10:30pm 22.9 CALM 0 1 1016.8 - - - - - - - - -
24/10:00pm 23.2 CALM 0 0 1017.1 - - - - - - - - -
24/09:30pm 22.9 CALM 0 0 1017.1 - - - - - - - - -
24/09:00pm 22.7 W 2 4 1017.1 - - - - - - - - -
24/08:30pm 23.3 SSW 2 4 1017.1 - - - - - - - - -
24/08:00pm 23.4 SSW 3 4 1016.8 - - - - - - - - -
24/07:30pm 23.7 CALM 0 0 1016.7 - - - - - - - - -
24/07:00pm 23.9 SSW 2 4 1016.5 - - - - - - - - -
24/06:30pm 24.1 SSW 5 6 1016.5 - - - - - - - - -
24/06:00pm 23.8 SSW 4 5 1016.3 - - - - - - - - -
24/05:30pm 23.5 SSW 5 7 1015.9 - - - - - - - - -
24/05:00pm 23.1 SW 4 5 1015.6 - - - - - - - - -
24/04:30pm 24.0 W 4 6 1015.3 - - - - - - - - -
24/04:00pm 24.4 W 3 5 1014.9 - - - - - - - - -
24/03:30pm 24.8 W 4 5 1014.6 - - - - - - - - -
24/03:00pm 24.9 WSW 4 6 1014.5 - - - - - - - - -
24/02:30pm 24.7 W 4 5 1014.5 - - - - - - - - -
24/02:00pm 25.2 SW 4 6 1014.4 - - - - - - - - -
24/01:30pm 25.1 S 4 5 1014.2 - - - - - - - - -
24/01:00pm 25.2 S 3 4 1014.4 - - - - - - - - -
24/12:30pm 25.1 S 3 4 1014.8 - - - - - - - - -
24/12:00pm 25.0 S 3 4 1015.2 - - - - - - - - -
24/11:30am 24.8 S 2 4 1015.9 - - - - - - - - -
24/11:00am 24.9 S 3 5 1016.1 - - - - - - - - -
24/10:30am 24.8 SW 3 5 1016.7 - - - - - - - - -
24/10:00am 25.0 SSW 1 4 1017.0 - - - - - - - - -
24/09:30am 24.7 CALM 0 4 1017.0 - - - - - - - - -
24/09:00am 23.9 S 2 5 1017.3 - - - - - - - - -
24/08:30am 23.6 SW 3 5 1017.5 - - - - - - - - -
24/08:00am 23.3 SW 4 5 1017.3 - - - - - - - - -
24/07:30am 22.6 SW 2 4 1017.2 - - - - - - - - -
24/07:00am 22.1 SSW 3 4 1016.7 - - - - - - - - -
24/06:30am 22.1 S 4 6 1016.6 - - - - - - - - -
24/06:00am 22.5 SW 3 5 1016.4 - - - - - - - - -
24/05:30am 22.4 S 1 5 1016.2 - - - - - - - - -
24/05:00am 22.3 CALM 0 2 1016.2 - - - - - - - - -
24/04:30am 22.6 CALM 0 2 1016.1 - - - - - - - - -
24/04:00am 22.2 CALM 0 3 1016.0 - - - - - - - - -
24/03:30am 22.5 CALM 0 2 1016.2 - - - - - - - - -
24/03:00am 22.7 CALM 0 2 1016.2 - - - - - - - - -
24/02:30am 22.2 CALM 0 2 1016.3 - - - - - - - - -
24/02:00am 22.2 CALM 0 3 1016.4 - - - - - - - - -
24/01:30am 22.6 CALM 0 2 1016.6 - - - - - - - - -
24/01:00am 22.2 CALM 0 2 1016.7 - - - - - - - - -
24/12:30am 21.7 CALM 0 1 1017.1 - - - - - - - - -
24/12:00am 21.9 CALM 0 0 1017.3 - - - - - - - - -
 
Date/Time
EST
Temp

°C
Wind Pressure Rain
since 9am
mm
Weather Cloud Vis
km
Sea
Height
m
Swell
Dir
 
Speed
knots
Gust
knots
hPa Trend Height
m
Period
s
Dir
23/11:30pm 22.7 CALM 0 2 1017.2 - - - - - - - - -
23/11:00pm 22.2 SSW 1 4 1017.5 - - - - - - - - -
23/10:30pm 22.8 CALM 0 2 1017.6 - - - - - - - - -
23/10:00pm 22.9 CALM 0 2 1017.8 - - - - - - - - -
23/09:30pm 23.0 CALM 0 2 1017.9 - - - - - - - - -
23/09:00pm 22.9 CALM 0 2 1018.0 - - - - - - - - -
23/08:30pm 22.9 CALM 0 2 1018.0 - - - - - - - - -
23/08:00pm 23.1 CALM 0 2 1017.9 - - - - - - - - -
23/07:30pm 23.2 S 1 3 1017.7 - - - - - - - - -
23/07:00pm 23.2 SSE 1 3 1017.4 - - - - - - - - -
23/06:30pm 23.2 S 2 10 1017.2 - - - - - - - - -
23/06:00pm 23.0 S 8 11 1016.9 - - - - - - - - -
23/05:30pm 23.1 S 9 11 1016.6 - - - - - - - - -
23/05:00pm 23.1 SSE 9 12 1016.3 - - - - - - - - -
23/04:30pm 23.2 S 9 11 1016.1 - - - - - - - - -
23/04:00pm 23.4 S 9 11 1016.1 - - - - - - - - -
23/03:30pm 23.5 S 10 13 1015.9 - - - - - - - - -
23/03:00pm 23.7 SSE 9 11 1015.8 - - - - - - - - -
23/02:30pm 23.8 SSE 9 11 1015.7 - - - - - - - - -
23/02:00pm 24.0 SSE 10 12 1015.9 - - - - - - - - -
23/01:30pm 24.1 SSE 9 11 1016.3 - - - - - - - - -
23/01:00pm 23.8 SSE 10 13 1016.3 - - - - - - - - -
23/12:30pm 24.1 SSE 10 12 1016.7 - - - - - - - - -
23/12:00pm 23.9 SSE 10 12 1016.9 - - - - - - - - -
23/11:30am 24.2 SSE 12 15 1017.5 - - - - - - - - -
23/11:00am 24.3 SSE 11 14 1017.7 - - - - - - - - -
23/10:30am 24.1 SSE 11 14 1018.0 - - - - - - - - -
23/10:00am 24.1 SE 11 13 1018.4 - - - - - - - - -
23/09:30am 24.1 SSE 10 14 1018.5 - - - - - - - - -
23/09:00am 24.0 SE 11 14 1018.8 - - - - - - - - -
23/08:30am 23.8 SE 10 13 1018.8 - - - - - - - - -
23/08:00am 23.7 SE 11 14 1018.6 - - - - - - - - -
23/07:30am 23.6 SE 12 16 1018.4 - - - - - - - - -
23/07:00am 23.6 SE 13 16 1018.3 - - - - - - - - -
23/06:30am 23.2 SE 12 15 1018.2 - - - - - - - - -
23/06:00am 23.1 SE 13 15 1018.0 - - - - - - - - -
23/05:30am 23.1 SE 14 17 1017.8 - - - - - - - - -
23/05:00am 23.0 SE 15 17 1017.6 - - - - - - - - -
23/04:30am 23.2 SE 15 18 1018.0 - - - - - - - - -
23/04:00am 23.2 SE 14 18 1017.9 - - - - - - - - -
23/03:30am 23.2 SE 16 19 1017.7 - - - - - - - - -
23/03:00am 23.2 SSE 14 16 1017.7 - - - - - - - - -
23/02:30am 23.1 SE 15 18 1017.9 - - - - - - - - -
23/02:00am 23.2 SE 20 23 1017.9 - - - - - - - - -
23/01:30am 23.2 SE 15 19 1018.4 - - - - - - - - -
23/01:00am 23.5 SE 12 17 1018.7 - - - - - - - - -
23/12:30am 23.5 SE 11 14 1019.0 - - - - - - - - -
23/12:00am 23.5 SE 13 15 1019.1 - - - - - - - - -
 
Date/Time
EST
Temp

°C
Wind Pressure Rain
since 9am
mm
Weather Cloud Vis
km
Sea
Height
m
Swell
Dir
 
Speed
knots
Gust
knots
hPa Trend Height
m
Period
s
Dir
22/11:30pm 23.7 SE 13 15 1019.4 - - - - - - - - -
22/11:00pm 23.7 ESE 13 16 1019.5 - - - - - - - - -
22/10:30pm 23.7 SE 14 16 1019.7 - - - - - - - - -
22/10:00pm 23.7 SE 14 18 1019.8 - - - - - - - - -
22/09:30pm 23.8 SE 13 16 1020.0 - - - - - - - - -
22/09:00pm 23.9 SE 14 16 1020.0 - - - - - - - - -
22/08:30pm 23.9 SE 15 18 1020.0 - - - - - - - - -
22/08:00pm 23.8 SE 14 16 1020.1 - - - - - - - - -
22/07:30pm 24.0 SE 15 19 1019.9 - - - - - - - - -
22/07:00pm 24.0 SE 16 20 1019.6 - - - - - - - - -
22/06:30pm 23.9 SE 17 21 1019.3 - - - - - - - - -
22/06:00pm 24.0 SE 17 20 1019.2 - - - - - - - - -
22/05:30pm 24.2 SE 19 22 1019.0 - - - - - - - - -
22/05:00pm 24.1 ESE 15 18 1019.1 - - - - - - - - -
22/04:30pm 24.3 ESE 15 19 1018.9 - - - - - - - - -
22/04:00pm 24.0 ESE 17 21 1018.6 - - - - - - - - -
22/03:30pm 24.2 ESE 18 22 1018.3 - - - - - - - - -
22/03:00pm 24.4 ESE 16 19 1018.4 - - - - - - - - -
22/02:30pm 24.5 ESE 18 21 1018.4 - - - - - - - - -
22/02:00pm 24.6 ESE 18 21 1018.6 - - - - - - - - -
22/01:30pm 24.6 ESE 19 22 1018.8 - - - - - - - - -
22/01:00pm 25.0 ESE 16 19 1019.4 - - - - - - - - -
22/12:30pm 25.1 ESE 16 17 1019.8 - - - - - - - - -
22/12:00pm 24.6 ESE 17 20 1020.4 - - - - - - - - -
22/11:30am 24.5 ESE 18 21 1020.9 - - - - - - - - -
22/11:00am 24.7 ESE 17 21 1021.2 - - - - - - - - -
22/10:30am 24.3 ESE 18 21 1021.3 - - - - - - - - -
22/10:00am 24.4 SE 20 23 1021.6 - - - - - - - - -
22/09:30am 24.7 ESE 20 24 1021.7 - - - - - - - - -
22/09:00am 24.6 ESE 20 26 1022.0 - - - - - - - - -
22/08:30am 24.5 ESE 20 24 1021.5 - - - - - - - - -
22/08:00am 24.3 SE 20 23 1021.6 - - - - - - - - -
22/07:30am 24.3 ESE 20 25 1021.5 - - - - - - - - -
22/07:00am 24.4 SE 20 23 1021.4 - - - - - - - - -
22/06:30am 24.4 SE 20 23 1021.4 - - - - - - - - -
22/06:00am 24.2 SE 21 25 1020.8 - - - - - - - - -
22/05:30am 24.1 ESE 22 25 1020.4 - - - - - - - - -
22/05:00am 24.1 SE 22 26 1020.2 - - - - - - - - -
22/04:30am 24.1 SE 22 26 1019.7 - - - - - - - - -
22/04:00am 24.0 SE 22 27 1019.6 - - - - - - - - -
22/03:30am 23.8 SE 22 27 1019.5 - - - - - - - - -
22/03:00am 23.8 ESE 22 25 1019.7 - - - - - - - - -
22/02:30am 24.1 ESE 22 26 1019.6 - - - - - - - - -
22/02:00am 24.2 ESE 23 28 1019.7 - - - - - - - - -

Other Formats:

Comma delimited format used in spreadsheet applications
http://www.bom.gov.au/fwo/IDQ60701/IDQ60701.94394.axf

JavaScript Object Notation format (JSON) in row-major order
http://www.bom.gov.au/fwo/IDQ60701/IDQ60701.94394.json